Terminal Aerodrome Forecast
Issued by NWS

Home | Current Version | Previous Version | Text Only | Print | Product List | Glossary On
Versions: 1 2 3 4 5 6 7 8 9 10 11 12 13 14 15 16 17
000
FTUS41 KGYX 270528
TAFMHT
TAF
KMHT 270528Z 2706/2806 VRB04KT P6SM SCT070 BKN100
     FM271500 19008KT P6SM SCT040 BKN100 PROB30 2721/2802 2SM -TSRA
      BKN030CB=

USA.gov is the U.S. government's official web portal to all federal, state and local government web resources and services.